createdAt,value
2023-01-25T00:00:54.801Z,100576.56
2023-01-25T00:03:21.677Z,100549.19
2023-01-25T00:05:48.580Z,100567.16
2023-01-25T00:08:15.515Z,100560.31
2023-01-25T00:10:42.405Z,100569.72
2023-01-25T00:13:09.315Z,100567.19
2023-01-25T00:15:36.244Z,100557.75
2023-01-25T00:18:03.120Z,100562.88
2023-01-25T00:20:29.915Z,100562.03
2023-01-25T00:22:56.771Z,100566.31
2023-01-25T00:25:23.627Z,100565.44
2023-01-25T00:27:50.476Z,100563.72
2023-01-25T00:30:17.387Z,100563.72
2023-01-25T00:33:15.744Z,100567.13
2023-01-25T00:35:45.053Z,100568.00
2023-01-25T00:38:35.098Z,100561.16
2023-01-25T00:41:01.934Z,100559.50
2023-01-25T00:43:28.758Z,100567.19
2023-01-25T00:46:01.594Z,100541.47
2023-01-25T00:48:28.490Z,100548.34
2023-01-25T00:50:55.312Z,100540.63
2023-01-25T00:53:22.230Z,100530.38
2023-01-25T00:55:55.289Z,100532.06
2023-01-25T00:58:22.114Z,100536.34
2023-01-25T01:00:48.983Z,100546.59
2023-01-25T01:03:16.642Z,100541.47
2023-01-25T01:05:43.455Z,100536.34
2023-01-25T01:08:15.869Z,100550.91
2023-01-25T01:10:42.707Z,100556.06
2023-01-25T01:13:09.523Z,100548.31
2023-01-25T01:15:37.548Z,100537.19
2023-01-25T01:18:04.441Z,100534.66
2023-01-25T01:20:31.312Z,100532.91
2023-01-25T01:22:58.255Z,100530.34
2023-01-25T01:25:25.085Z,100546.59
2023-01-25T01:27:51.855Z,100542.34
2023-01-25T01:30:18.664Z,100542.34
2023-01-25T01:32:45.556Z,100538.06
2023-01-25T01:35:12.432Z,100521.78
2023-01-25T01:37:42.733Z,100532.06
2023-01-25T01:40:16.148Z,100543.19
2023-01-25T01:43:07.751Z,100538.88
2023-01-25T01:45:54.611Z,100537.19
2023-01-25T01:48:34.577Z,100541.47
2023-01-25T01:51:36.022Z,100538.91
2023-01-25T01:54:20.708Z,100540.63
2023-01-25T01:56:58.166Z,100539.75
2023-01-25T01:59:31.917Z,100544.91
2023-01-25T02:01:58.739Z,100539.75
2023-01-25T02:04:27.899Z,100527.75
2023-01-25T02:07:11.800Z,100526.94
2023-01-25T02:09:38.808Z,100536.38
2023-01-25T02:12:07.439Z,100532.06
2023-01-25T02:14:35.101Z,100535.50
2023-01-25T02:17:03.789Z,100537.19
2023-01-25T02:20:08.659Z,100532.91
2023-01-25T02:23:19.648Z,100515.81
2023-01-25T02:25:46.975Z,100524.34
2023-01-25T02:28:32.442Z,100523.50
2023-01-25T02:30:59.418Z,100515.75
2023-01-25T02:33:27.692Z,100513.19
2023-01-25T02:36:13.730Z,100518.38
2023-01-25T02:38:47.175Z,100524.34
2023-01-25T02:41:36.375Z,100520.09
2023-01-25T02:44:24.408Z,100514.06
2023-01-25T02:46:51.701Z,100511.50
2023-01-25T02:49:19.466Z,100516.63
2023-01-25T02:51:55.843Z,100513.22
2023-01-25T02:54:23.996Z,100510.66
2023-01-25T02:56:50.808Z,100517.50
2023-01-25T02:59:19.004Z,100514.06
2023-01-25T03:01:46.440Z,100506.38
2023-01-25T03:04:13.457Z,100514.94
2023-01-25T03:06:41.476Z,100509.78
2023-01-25T03:09:10.498Z,100504.66
2023-01-25T03:11:37.380Z,100502.09
2023-01-25T03:14:04.381Z,100504.66
2023-01-25T03:16:32.197Z,100465.25
2023-01-25T03:18:59.070Z,100488.34
2023-01-25T03:21:26.366Z,100479.84
2023-01-25T03:24:00.197Z,100482.41
2023-01-25T03:26:28.352Z,100472.09
2023-01-25T03:28:55.338Z,100475.50
2023-01-25T03:31:22.310Z,100469.53
2023-01-25T03:33:49.808Z,100484.06
2023-01-25T03:36:16.818Z,100460.97
2023-01-25T03:38:43.614Z,100466.94
2023-01-25T03:41:12.844Z,100460.09
2023-01-25T03:43:39.787Z,100461.81
2023-01-25T03:46:06.648Z,100451.53
2023-01-25T03:48:33.732Z,100454.09
2023-01-25T03:51:01.101Z,100460.09
2023-01-25T03:53:30.753Z,100464.38
2023-01-25T03:56:10.167Z,100463.53
2023-01-25T03:58:39.114Z,100454.09
2023-01-25T04:01:07.740Z,100442.16
2023-01-25T04:03:35.336Z,100454.97
2023-01-25T04:06:02.346Z,100420.81
2023-01-25T04:08:29.664Z,100452.38
2023-01-25T04:11:02.202Z,100449.84
2023-01-25T04:13:29.462Z,100424.22
2023-01-25T04:15:56.363Z,100454.16
2023-01-25T04:18:23.405Z,100461.00
2023-01-25T04:20:54.799Z,100427.63
2023-01-25T04:23:22.652Z,100444.72
2023-01-25T04:26:01.421Z,100461.88
2023-01-25T04:28:28.696Z,100459.25
2023-01-25T04:30:58.196Z,100433.59
2023-01-25T04:33:26.328Z,100451.53
2023-01-25T04:35:53.394Z,100456.72
2023-01-25T04:38:20.460Z,100452.41
2023-01-25T04:40:47.445Z,100447.25
2023-01-25T04:43:16.329Z,100451.56
2023-01-25T04:45:43.300Z,100437.03
2023-01-25T04:48:12.484Z,100445.56
2023-01-25T04:50:41.398Z,100445.56
2023-01-25T04:53:10.004Z,100448.97
2023-01-25T04:55:36.809Z,100442.13
2023-01-25T04:58:04.421Z,100425.91
2023-01-25T05:00:32.296Z,100435.28
2023-01-25T05:02:59.225Z,100437.00
2023-01-25T05:05:26.045Z,100442.97
2023-01-25T05:07:52.826Z,100441.28
2023-01-25T05:10:19.829Z,100445.56
2023-01-25T05:12:46.674Z,100445.56
2023-01-25T05:15:13.649Z,100445.56
2023-01-25T05:17:40.656Z,100437.84
2023-01-25T05:20:08.293Z,100410.50
2023-01-25T05:22:35.187Z,100396.84
2023-01-25T05:25:03.704Z,100431.03
2023-01-25T05:27:30.582Z,100432.69
2023-01-25T05:29:57.967Z,100421.59
2023-01-25T05:32:25.266Z,100412.22
2023-01-25T05:34:52.195Z,100413.91
2023-01-25T05:37:20.888Z,100429.31
2023-01-25T05:39:47.792Z,100431.00
2023-01-25T05:42:19.412Z,100426.75
2023-01-25T05:44:47.891Z,100431.03
2023-01-25T05:47:17.296Z,100416.44
2023-01-25T05:49:44.435Z,100430.13
2023-01-25T05:52:16.440Z,100420.75
2023-01-25T05:54:43.798Z,100434.44
2023-01-25T05:57:10.739Z,100425.88
2023-01-25T05:59:37.555Z,100421.59
2023-01-25T06:02:04.403Z,100425.84
2023-01-25T06:04:31.215Z,100413.03
2023-01-25T06:06:58.190Z,100425.00
2023-01-25T06:09:24.966Z,100423.31
2023-01-25T06:11:51.799Z,100413.03
2023-01-25T06:14:18.633Z,100417.31
2023-01-25T06:16:45.487Z,100425.00
2023-01-25T06:19:14.108Z,100425.88
2023-01-25T06:21:41.014Z,100426.75
2023-01-25T06:24:08.247Z,100419.03
2023-01-25T06:26:35.089Z,100424.16
2023-01-25T06:29:01.990Z,100412.19
2023-01-25T06:31:28.907Z,100418.19
2023-01-25T06:33:55.957Z,100418.19
2023-01-25T06:36:23.279Z,100418.19
2023-01-25T06:38:52.047Z,100417.34
2023-01-25T06:41:19.763Z,100413.03
2023-01-25T06:43:47.922Z,100416.47
2023-01-25T06:46:15.185Z,100414.75
2023-01-25T06:48:43.080Z,100407.94
2023-01-25T06:51:13.553Z,100409.59
2023-01-25T06:53:43.626Z,100407.91
2023-01-25T06:56:14.485Z,100398.50
2023-01-25T06:58:42.218Z,100401.06
2023-01-25T07:01:27.065Z,100401.88
2023-01-25T07:03:56.992Z,100397.59
2023-01-25T07:06:25.071Z,100395.91
2023-01-25T07:08:52.028Z,100387.34
2023-01-25T07:11:19.217Z,100373.69
2023-01-25T07:13:47.542Z,100398.47
2023-01-25T07:16:20.288Z,100383.94
2023-01-25T07:18:47.859Z,100388.19
2023-01-25T07:21:21.203Z,100386.47
2023-01-25T07:23:52.711Z,100382.25
2023-01-25T07:26:23.420Z,100379.69
2023-01-25T07:28:51.212Z,100389.09
2023-01-25T07:31:19.953Z,100396.78
2023-01-25T07:33:54.945Z,100387.38
2023-01-25T07:36:22.321Z,100389.94
2023-01-25T07:38:53.010Z,100382.22
2023-01-25T07:41:19.931Z,100381.34
2023-01-25T07:43:46.797Z,100340.38
2023-01-25T07:46:14.583Z,100365.97
2023-01-25T07:48:47.549Z,100378.78
2023-01-25T07:51:30.031Z,100386.50
2023-01-25T07:54:03.682Z,100377.91
2023-01-25T07:56:38.395Z,100383.06
2023-01-25T07:59:08.155Z,100353.19
2023-01-25T08:01:36.773Z,100357.44
2023-01-25T08:04:05.107Z,100379.66
2023-01-25T08:06:38.932Z,100382.22
2023-01-25T08:09:12.679Z,100379.66
2023-01-25T08:11:40.037Z,100377.97
2023-01-25T08:14:06.883Z,100378.78
2023-01-25T08:16:33.778Z,100377.94
2023-01-25T08:19:03.281Z,100378.78
2023-01-25T08:21:34.385Z,100379.66
2023-01-25T08:24:05.501Z,100389.94
2023-01-25T08:26:34.597Z,100383.97
2023-01-25T08:29:01.876Z,100363.47
2023-01-25T08:31:32.948Z,100347.22
2023-01-25T08:34:01.080Z,100382.22
2023-01-25T08:36:28.618Z,100377.94
2023-01-25T08:39:01.268Z,100383.06
2023-01-25T08:41:29.896Z,100377.97
2023-01-25T08:43:57.575Z,100360.91
2023-01-25T08:46:30.271Z,100373.69
2023-01-25T08:48:59.427Z,100375.38
2023-01-25T08:51:27.141Z,100367.66
2023-01-25T08:53:54.210Z,100366.78
2023-01-25T08:56:21.480Z,100357.44
2023-01-25T08:58:50.120Z,100359.13
2023-01-25T09:01:19.559Z,100359.94
2023-01-25T09:03:49.596Z,100287.38
2023-01-25T09:06:17.824Z,100352.25
2023-01-25T09:08:44.699Z,100345.38
2023-01-25T09:11:17.883Z,100339.38
2023-01-25T09:13:45.253Z,100347.94
2023-01-25T09:16:18.100Z,100350.50
2023-01-25T09:18:45.778Z,100340.31
2023-01-25T09:21:17.698Z,100349.75
2023-01-25T09:24:05.497Z,100356.59
2023-01-25T09:26:36.051Z,100336.94
2023-01-25T09:29:03.689Z,100354.88
2023-01-25T09:31:30.878Z,100354.84
2023-01-25T09:33:58.405Z,100332.63
2023-01-25T09:36:25.886Z,100343.72
2023-01-25T09:38:53.404Z,100344.56
2023-01-25T09:41:29.104Z,100346.28
2023-01-25T09:44:31.545Z,100336.06
2023-01-25T09:47:27.038Z,100273.72
2023-01-25T09:50:27.830Z,100338.53
2023-01-25T09:53:22.081Z,100349.69
2023-01-25T09:55:59.605Z,100311.25
2023-01-25T09:58:37.220Z,100344.53
2023-01-25T10:01:32.846Z,100347.09
2023-01-25T10:04:25.260Z,100320.59
2023-01-25T10:07:29.218Z,100346.19
2023-01-25T10:10:11.991Z,100333.34
2023-01-25T10:12:39.327Z,100335.91
2023-01-25T10:15:19.199Z,100337.66
2023-01-25T10:17:58.162Z,100334.25
2023-01-25T10:20:40.834Z,100330.00
2023-01-25T10:23:33.541Z,100324.88
2023-01-25T10:26:02.781Z,100309.50
2023-01-25T10:28:53.582Z,100318.00
2023-01-25T10:31:50.073Z,100318.88
2023-01-25T10:34:25.860Z,100316.28
2023-01-25T10:37:02.216Z,100313.75
2023-01-25T10:39:30.633Z,100304.31
2023-01-25T10:42:07.635Z,100290.66
2023-01-25T10:44:35.881Z,100297.47
2023-01-25T10:47:23.994Z,100299.19
2023-01-25T10:49:56.099Z,100291.50
2023-01-25T10:52:37.612Z,100270.13
2023-01-25T10:55:28.808Z,100288.91
2023-01-25T10:57:57.859Z,100290.59
2023-01-25T11:00:34.522Z,100280.34
2023-01-25T11:03:01.330Z,100289.72
2023-01-25T11:05:40.516Z,100276.00
2023-01-25T11:08:37.745Z,100288.84
2023-01-25T11:11:36.194Z,100279.41
2023-01-25T11:14:17.913Z,100273.44
2023-01-25T11:16:50.419Z,100280.28
2023-01-25T11:20:06.049Z,100274.28
2023-01-25T11:22:33.018Z,100263.16
2023-01-25T11:25:24.448Z,100254.66
2023-01-25T11:27:51.428Z,100266.63
2023-01-25T11:30:19.291Z,100254.69
2023-01-25T11:32:46.315Z,100251.31
2023-01-25T11:35:21.579Z,100256.38
2023-01-25T11:38:15.027Z,100248.66
2023-01-25T11:40:53.754Z,100241.84
2023-01-25T11:43:39.054Z,100241.78
2023-01-25T11:46:12.388Z,100237.47
2023-01-25T11:48:54.110Z,100236.63
2023-01-25T11:51:33.308Z,100228.13
2023-01-25T11:54:27.239Z,100219.56
2023-01-25T11:58:00.171Z,100214.41
2023-01-25T12:01:12.069Z,100218.66
2023-01-25T12:04:17.687Z,100206.63
2023-01-25T12:06:58.583Z,100203.25
2023-01-25T12:09:46.950Z,100183.63
2023-01-25T12:12:24.824Z,100197.25
2023-01-25T12:15:15.725Z,100177.56
2023-01-25T12:17:55.448Z,100167.28
2023-01-25T12:20:41.222Z,100170.69
2023-01-25T12:24:03.215Z,100163.00
2023-01-25T12:27:05.543Z,100152.72
2023-01-25T12:29:40.951Z,100143.31
2023-01-25T12:32:21.133Z,100134.75
2023-01-25T12:35:12.786Z,100130.47
2023-01-25T12:37:43.829Z,100123.63
2023-01-25T12:40:17.476Z,100119.38
2023-01-25T12:42:55.814Z,100119.38
2023-01-25T12:45:28.241Z,100121.88
2023-01-25T12:48:20.196Z,100105.63
2023-01-25T12:50:57.426Z,100109.03
2023-01-25T12:53:34.110Z,100109.00
2023-01-25T12:56:01.846Z,100094.50
2023-01-25T12:58:47.613Z,100095.31
2023-01-25T13:01:34.334Z,100083.38
2023-01-25T13:04:54.347Z,100083.34
2023-01-25T13:07:29.238Z,100079.09
2023-01-25T13:10:20.520Z,100075.63
2023-01-25T13:12:56.222Z,100069.69
2023-01-25T13:15:49.592Z,100060.31
2023-01-25T13:18:28.441Z,100059.41
2023-01-25T13:21:05.084Z,100056.84
2023-01-25T13:23:50.577Z,100056.00
2023-01-25T13:26:28.337Z,100049.97
2023-01-25T13:29:00.216Z,100049.97
2023-01-25T13:31:52.111Z,100046.56
2023-01-25T13:34:34.888Z,100049.13
2023-01-25T13:37:26.431Z,100033.00
2023-01-25T13:40:26.236Z,100045.75
2023-01-25T13:43:05.528Z,100038.03
2023-01-25T13:45:36.305Z,100035.50
2023-01-25T13:48:08.878Z,100038.91
2023-01-25T13:51:04.432Z,100013.38
2023-01-25T13:53:35.150Z,100009.94
2023-01-25T13:56:03.425Z,100032.06
2023-01-25T13:58:36.585Z,100026.91
2023-01-25T14:01:24.021Z,100014.28
2023-01-25T14:03:56.523Z,100027.00
2023-01-25T14:06:33.753Z,100019.25
2023-01-25T14:09:17.203Z,100016.72
2023-01-25T14:11:56.906Z,100014.19
2023-01-25T14:14:30.853Z,100022.72
2023-01-25T14:17:21.152Z,99994.56
2023-01-25T14:19:54.466Z,100014.13
2023-01-25T14:22:32.379Z,100014.91
2023-01-25T14:25:20.513Z,100005.63
2023-01-25T14:27:56.229Z,100013.25
2023-01-25T14:30:34.713Z,100020.13
2023-01-25T14:33:16.892Z,100016.69
2023-01-25T14:36:15.837Z,100021.84
2023-01-25T14:38:37.562Z,100015.84
2023-01-25T14:41:20.212Z,100019.25
2023-01-25T14:43:56.448Z,100009.94
2023-01-25T14:46:31.421Z,100016.72
2023-01-25T14:49:16.101Z,100009.88
2023-01-25T14:52:04.690Z,100015.84
2023-01-25T14:54:35.384Z,99977.53
2023-01-25T14:57:08.190Z,100008.97
2023-01-25T14:59:45.090Z,100002.91
2023-01-25T15:02:39.406Z,99994.41
2023-01-25T15:05:45.850Z,99988.44
2023-01-25T15:08:13.842Z,99992.66
2023-01-25T15:10:56.521Z,99985.84
2023-01-25T15:13:27.046Z,99991.00
2023-01-25T15:16:02.954Z,99989.25
2023-01-25T15:18:58.721Z,99993.56
2023-01-25T15:21:32.649Z,99974.78
2023-01-25T15:24:06.358Z,99971.31
2023-01-25T15:26:35.571Z,99954.25
2023-01-25T15:29:17.880Z,99961.94
2023-01-25T15:31:44.805Z,99956.78
2023-01-25T15:34:29.188Z,99964.47
2023-01-25T15:36:56.304Z,99962.78
2023-01-25T15:39:23.274Z,99957.69
2023-01-25T15:41:50.097Z,99956.00
2023-01-25T15:44:17.550Z,99944.84
2023-01-25T15:46:49.471Z,99937.97
2023-01-25T15:49:26.586Z,99936.31
2023-01-25T15:51:54.996Z,99935.69
2023-01-25T15:54:21.855Z,99931.63
2023-01-25T15:56:55.578Z,99926.41
2023-01-25T15:59:22.600Z,99923.81
2023-01-25T16:01:49.574Z,99926.31
2023-01-25T16:04:16.465Z,99925.47
2023-01-25T16:06:52.075Z,99924.53
2023-01-25T16:09:25.443Z,99916.00
2023-01-25T16:11:58.146Z,99902.34
2023-01-25T16:14:29.169Z,99915.91
2023-01-25T16:16:59.820Z,99907.44
2023-01-25T16:19:26.611Z,99900.75
2023-01-25T16:21:53.414Z,99900.81
2023-01-25T16:24:20.393Z,99902.38
2023-01-25T16:26:58.756Z,99898.94
2023-01-25T16:29:25.777Z,99893.25
2023-01-25T16:31:54.795Z,99884.00
2023-01-25T16:34:22.141Z,99868.59
2023-01-25T16:36:50.663Z,99891.56
2023-01-25T16:39:21.290Z,99892.44
2023-01-25T16:41:48.957Z,99895.06
2023-01-25T16:44:16.772Z,99894.13
2023-01-25T16:46:43.937Z,99892.34
2023-01-25T16:49:20.003Z,99903.34
2023-01-25T16:51:48.925Z,99893.03
2023-01-25T16:54:15.808Z,99892.16
2023-01-25T16:56:42.648Z,99890.44
2023-01-25T16:59:10.804Z,99877.66
2023-01-25T17:01:41.449Z,99880.97
2023-01-25T17:04:09.763Z,99890.34
2023-01-25T17:06:40.760Z,99891.16
2023-01-25T17:09:25.537Z,99887.72
2023-01-25T17:11:54.369Z,99879.13
2023-01-25T17:14:22.063Z,99880.84
2023-01-25T17:16:51.353Z,99882.53
2023-01-25T17:19:19.364Z,99875.72
2023-01-25T17:21:46.588Z,99876.53
2023-01-25T17:24:16.457Z,99873.13
2023-01-25T17:26:43.274Z,99870.56
2023-01-25T17:29:10.467Z,99874.00
2023-01-25T17:31:38.039Z,99866.25
2023-01-25T17:34:08.512Z,99843.31
2023-01-25T17:36:35.381Z,99872.25
2023-01-25T17:39:06.977Z,99861.13
2023-01-25T17:41:34.144Z,99850.84
2023-01-25T17:44:01.150Z,99849.16
2023-01-25T17:46:32.868Z,99850.88
2023-01-25T17:49:01.962Z,99850.03
2023-01-25T17:51:29.388Z,99817.78
2023-01-25T17:53:57.478Z,99850.84
2023-01-25T17:56:24.437Z,99842.28
2023-01-25T17:58:51.449Z,99835.47
2023-01-25T18:01:23.428Z,99832.91
2023-01-25T18:03:52.728Z,99820.16
2023-01-25T18:06:24.449Z,99822.63
2023-01-25T18:08:54.363Z,99826.03
2023-01-25T18:11:27.482Z,99826.88
2023-01-25T18:13:57.827Z,99826.88
2023-01-25T18:16:27.482Z,99818.44
2023-01-25T18:18:56.354Z,99777.66
2023-01-25T18:21:26.227Z,99821.78
2023-01-25T18:23:57.273Z,99814.97
2023-01-25T18:26:36.967Z,99792.97
2023-01-25T18:29:47.908Z,99814.13
2023-01-25T18:32:15.763Z,99809.88
2023-01-25T18:34:42.682Z,99800.50
2023-01-25T18:37:19.153Z,99804.75
2023-01-25T18:39:53.135Z,99803.91
2023-01-25T18:42:30.955Z,99800.50
2023-01-25T18:44:57.866Z,99801.31
2023-01-25T18:47:24.985Z,99794.44
2023-01-25T18:49:53.159Z,99780.00
2023-01-25T18:52:23.035Z,99789.34
2023-01-25T18:54:51.820Z,99780.84
2023-01-25T18:57:19.871Z,99786.84
2023-01-25T18:59:54.635Z,99778.31
2023-01-25T19:02:23.467Z,99788.50
2023-01-25T19:04:50.553Z,99778.22
2023-01-25T19:07:18.500Z,99780.78
2023-01-25T19:09:47.205Z,99783.53
2023-01-25T19:12:14.006Z,99781.75
2023-01-25T19:14:40.845Z,99785.13
2023-01-25T19:17:08.299Z,99783.44
2023-01-25T19:19:35.127Z,99767.25
2023-01-25T19:22:01.964Z,99773.13
2023-01-25T19:24:28.831Z,99777.38
2023-01-25T19:26:55.652Z,99771.38
2023-01-25T19:29:22.525Z,99774.81
2023-01-25T19:31:50.055Z,99768.78
2023-01-25T19:34:16.961Z,99773.09
2023-01-25T19:36:49.409Z,99770.03
2023-01-25T19:39:17.183Z,99766.66
2023-01-25T19:41:44.260Z,99762.31
2023-01-25T19:44:13.808Z,99767.44
2023-01-25T19:46:40.995Z,99763.94
2023-01-25T19:49:11.023Z,99758.75
2023-01-25T19:51:42.058Z,99763.00
2023-01-25T19:54:16.674Z,99752.28
2023-01-25T19:56:46.670Z,99748.72
2023-01-25T19:59:21.715Z,99754.09
2023-01-25T20:01:48.925Z,99747.91
2023-01-25T20:04:22.086Z,99745.28
2023-01-25T20:06:50.565Z,99718.84
2023-01-25T20:09:19.950Z,99744.59
2023-01-25T20:11:47.343Z,99736.94
2023-01-25T20:14:15.316Z,99733.63
2023-01-25T20:16:42.136Z,99731.34
2023-01-25T20:19:12.145Z,99736.16
2023-01-25T20:21:39.636Z,99730.06
2023-01-25T20:24:10.106Z,99725.75
2023-01-25T20:26:39.919Z,99735.06
2023-01-25T20:29:07.659Z,99709.50
2023-01-25T20:31:41.241Z,99718.72
2023-01-25T20:34:16.542Z,99718.72
2023-01-25T20:36:44.300Z,99715.31
2023-01-25T20:39:17.853Z,99714.44
2023-01-25T20:41:46.508Z,99698.34
2023-01-25T20:44:15.698Z,99665.13
2023-01-25T20:46:43.239Z,99700.75
2023-01-25T20:49:18.148Z,99699.03
2023-01-25T20:51:46.475Z,99701.56
2023-01-25T20:54:14.482Z,99698.16
2023-01-25T20:56:42.795Z,99704.13
2023-01-25T20:59:09.975Z,99664.19
2023-01-25T21:01:37.327Z,99699.81
2023-01-25T21:04:07.141Z,99704.13
2023-01-25T21:06:35.128Z,99693.00
2023-01-25T21:09:02.396Z,99687.88
2023-01-25T21:11:29.314Z,99673.34
2023-01-25T21:13:56.251Z,99674.19
2023-01-25T21:16:23.480Z,99681.88
2023-01-25T21:18:57.420Z,99663.09
2023-01-25T21:21:30.318Z,99661.41
2023-01-25T21:23:59.897Z,99667.38
2023-01-25T21:26:33.227Z,99669.06
2023-01-25T21:29:01.905Z,99668.22
2023-01-25T21:31:34.988Z,99660.53
2023-01-25T21:34:03.232Z,99646.13
2023-01-25T21:36:30.251Z,99656.22
2023-01-25T21:38:58.036Z,99647.75
2023-01-25T21:41:29.302Z,99644.38
2023-01-25T21:44:17.213Z,99646.00
2023-01-25T21:46:49.237Z,99646.03
2023-01-25T21:49:46.195Z,99628.19
2023-01-25T21:52:13.023Z,99640.94
2023-01-25T21:54:40.300Z,99598.50
2023-01-25T21:57:09.215Z,99632.41
2023-01-25T21:59:40.789Z,99623.88
2023-01-25T22:02:13.058Z,99629.84
2023-01-25T22:04:39.874Z,99618.81
2023-01-25T22:07:09.025Z,99623.06
2023-01-25T22:09:35.838Z,99616.25
2023-01-25T22:12:02.705Z,99624.75
2023-01-25T22:14:29.590Z,99615.31
2023-01-25T22:16:56.410Z,99617.84
2023-01-25T22:19:23.190Z,99582.28
2023-01-25T22:21:50.194Z,99616.25
2023-01-25T22:24:17.390Z,99611.09
2023-01-25T22:26:47.431Z,99607.75
2023-01-25T22:29:15.020Z,99614.59
2023-01-25T22:31:43.111Z,99611.97
2023-01-25T22:34:10.771Z,99603.41
2023-01-25T22:36:38.243Z,99603.44
2023-01-25T22:39:05.062Z,99600.13
2023-01-25T22:41:33.484Z,99601.78
2023-01-25T22:44:00.279Z,99598.34
2023-01-25T22:46:29.203Z,99599.16
2023-01-25T22:48:57.577Z,99600.91
2023-01-25T22:51:29.984Z,99600.91
2023-01-25T22:53:58.533Z,99599.22
2023-01-25T22:56:28.647Z,99597.50
2023-01-25T22:58:55.990Z,99584.78
2023-01-25T23:01:32.262Z,99588.19
2023-01-25T23:03:59.513Z,99563.53
2023-01-25T23:06:29.663Z,99566.03
2023-01-25T23:09:03.318Z,99575.59
2023-01-25T23:11:35.408Z,99595.06
2023-01-25T23:14:25.256Z,99591.59
2023-01-25T23:16:52.095Z,99595.03
2023-01-25T23:19:19.259Z,99588.19
2023-01-25T23:21:46.148Z,99589.00
2023-01-25T23:24:13.042Z,99567.81
2023-01-25T23:26:45.991Z,99584.38
2023-01-25T23:29:13.381Z,99581.63
2023-01-25T23:31:40.486Z,99573.00
2023-01-25T23:34:07.628Z,99567.81
2023-01-25T23:36:38.753Z,99564.41
2023-01-25T23:39:06.248Z,99555.94
2023-01-25T23:41:33.809Z,99568.69
2023-01-25T23:44:00.858Z,99568.69
2023-01-25T23:46:28.325Z,99560.13
2023-01-25T23:48:55.342Z,99559.13
2023-01-25T23:51:22.709Z,99556.00
2023-01-25T23:53:49.491Z,99552.50
2023-01-25T23:56:19.678Z,99553.28
2023-01-25T23:58:47.521Z,99544.66
